• Join FlightAware (Why Join?)
  • Login
  • US Flag 
04:26AM EDT


 

Airport Tracker/Info


-or-


 

Live Flight TrackerFlight Track Log ✈ N552XJ ✈ 26-Jul-2013 ✈ KSRQ - KBUR

Flight Track Log - Related Links

Times and Time Zones

All times are in EDT time to prevent confusion due to time zone crossing. See the N552XJ flight status page for this flight to view local times or setup timezone preferences in your user account.

Time Position Orientation Groundspeed Altitude Reporting Facility
EDT Latitude Longitude Course Direction KTS MPH feet Rate Location/Type
07:00PM 27.4000 -82.5667 282° West 177 204 800  Level Tampa TRACON
07:02PM 27.4228 -82.6911 282° West 187 215 7,300 3,180 Climbing Miami Center
07:03PM 27.4486 -82.7719 290° West 230 265 10,400 2,880 Climbing Miami Center
07:04PM 27.4803 -82.8647 291° West 278 320 13,100 2,640 Climbing Miami Center
07:05PM 27.5139 -82.9625 291° West 319 367 15,700 2,460 Climbing Miami Center
07:06PM 27.5511 -83.0675 292° West 335 386 18,100 2,400 Climbing Miami Center
07:07PM 27.5881 -83.1747 291° West 358 412 20,500 2,220 Climbing Miami Center
07:08PM 27.6269 -83.2847 292° West 364 419 22,600 1,980 Climbing Miami Center
07:09PM 27.6658 -83.3969 291° West 376 433 24,500 1,680 Climbing Miami Center
07:10PM 27.6986 -83.4994 290° West 393 452 26,000 1,380 Climbing Miami Center
07:11PM 27.7411 -83.6192 292° West 403 464 27,300 1,260 Climbing Miami Center
07:12PM 27.7850 -83.7483 291° West 416 479 28,600 1,500 Climbing Miami Center
07:13PM 27.8308 -83.8778 292° West 435 501 30,300 1,740 Climbing Miami Center
07:15PM 27.9247 -84.1492 291° West 431 496 34,000 1,560 Climbing Jacksonville Center
07:16PM 27.9653 -84.2767 290° West 431 496 35,200 1,080 Climbing Jacksonville Center
07:17PM 28.0094 -84.4089 291° West 436 502 36,200 1,020 Climbing Jacksonville Center
07:18PM 28.0478 -84.5222 291° West 436 502 37,300 1,200 Climbing Jacksonville Center
07:19PM 28.0900 -84.6500 291° West 436 502 38,600 1,200 Climbing Jacksonville Center
07:20PM 28.1361 -84.7803 292° West 436 502 39,800 1,020 Climbing Jacksonville Center
07:21PM 28.1758 -84.9103 289° West 436 502 40,700 780 Climbing Jacksonville Center
07:22PM 28.2197 -85.0339 292° West 431 496 41,400 600 Climbing Jacksonville Center
07:23PM 28.2614 -85.1619 290° West 433 498 42,000 540 Climbing Jacksonville Center
07:24PM 28.3050 -85.2903 291° West 433 498 42,500 480 Climbing Jacksonville Center
07:25PM 28.3464 -85.4161 291° West 433 498 43,000 240 Climbing Jacksonville Center
07:26PM 28.3875 -85.5444 290° West 433 498 43,000  Level Jacksonville Center
07:27PM 28.4286 -85.6731 290° West 433 498 43,000  Level Jacksonville Center
07:28PM 28.4736 -85.8067 291° West 438 504 43,000  Level Jacksonville Center
07:29PM 28.5144 -85.9378 290° West 438 504 43,000  Level Jacksonville Center
07:30PM 28.5572 -86.0689 290° West 444 511 43,000  Level Jacksonville Center
07:31PM 28.5978 -86.1956 290° West 444 511 43,000  Level Jacksonville Center
07:32PM 28.6422 -86.3294 291° West 443 510 43,000  Level Jacksonville Center
07:33PM 28.6828 -86.4564 290° West 443 510 43,000  Level Jacksonville Center
07:34PM 28.7269 -86.5903 291° West 443 510 43,000  Level Jacksonville Center
07:35PM 28.7669 -86.7222 289° West 443 510 43,000  Level Jacksonville Center
07:36PM 28.8108 -86.8564 291° West 448 516 43,000  Level Jacksonville Center
07:37PM 28.8414 -86.9575 289° West 445 512 43,000  Level Houston Center
07:38PM 28.8917 -87.1175 290° West 448 516 43,000  Level Houston Center
07:39PM 28.9319 -87.2506 289° West 446 513 43,000  Level Houston Center
07:40PM 28.9739 -87.3831 290° West 445 512 43,000  Level Houston Center
07:41PM 29.0150 -87.5161 289° West 445 512 43,000  Level Houston Center
07:42PM 29.0553 -87.6497 289° West 447 514 43,000  Level Houston Center
07:43PM 29.0964 -87.7819 290° West 445 512 43,000  Level Houston Center
07:44PM 29.1361 -87.9164 289° West 447 514 43,000  Level Houston Center
07:45PM 29.1836 -88.0736 289° West 446 513 43,000  Level Houston Center
07:46PM 29.2239 -88.2089 289° West 450 518 43,000  Level Houston Center
07:47PM 29.2642 -88.3425 289° West 448 516 43,000  Level Houston Center
07:48PM 29.3042 -88.4778 289° West 449 517 43,000  Level Houston Center
07:49PM 29.3444 -88.6122 289° West 447 514 43,000  Level Houston Center
07:50PM 29.3850 -88.7467 289° West 447 514 43,000  Level Houston Center
07:51PM 29.4242 -88.8836 288° West 451 519 43,000  Level Houston Center
07:52PM 29.4717 -89.0461 289° West 449 517 43,000 180 Level Houston Center
07:53PM 29.5114 -89.1806 289° West 447 514 43,400 480 Climbing Houston Center
07:54PM 29.5500 -89.3133 289° West 441 507 44,000 480 Climbing Houston Center
07:55PM 29.5872 -89.4447 288° West 434 499 44,500 480 Climbing Houston Center
07:56PM 29.6250 -89.5736 289° West 427 491 45,000 240 Climbing Houston Center
07:58PM 29.6617 -89.7036 288° West 427 491 45,000  Level Houston Center
07:59PM 29.7003 -89.8369 288° West 434 499 45,000  Level Houston Center
08:00PM 29.7369 -89.9692 288° West 434 499 45,000  Level Houston Center
08:01PM 29.7842 -90.1306 289° West 439 505 45,000  Level Houston Center
08:02PM 29.8197 -90.2619 287° West 433 498 45,000  Level Houston Center
08:03PM 29.8581 -90.3961 288° West 438 504 45,000  Level Houston Center
08:04PM 29.8956 -90.5317 288° West 443 510 45,000  Level Houston Center
08:05PM 29.9328 -90.6636 288° West 435 501 45,000  Level Houston Center
08:06PM 29.9611 -90.8003 283° West 435 501 45,000  Level Houston Center
08:07PM 29.9722 -90.9383 275° West 433 498 45,000  Level Houston Center
08:08PM 29.9853 -91.0742 276° West 427 491 45,000  Level Houston Center
08:09PM 30.0031 -91.2350 277° West 422 486 45,000  Level Houston Center
08:10PM 30.0367 -91.3631 287° West 417 480 45,000  Level Houston Center
08:11PM 30.0725 -91.4925 288° West 422 486 45,000  Level Houston Center
08:12PM 30.1075 -91.6211 287° West 422 486 45,000  Level Houston Center
08:13PM 30.1478 -91.7642 288° West 423 487 45,000  Level Houston Center
08:14PM 30.1825 -91.8947 287° West 426 490 45,000  Level Houston Center
08:15PM 30.2214 -92.0353 288° West 429 494 45,000  Level Houston Center
08:16PM 30.2578 -92.1669 288° West 429 494 45,000  Level Houston Center
08:17PM 30.2925 -92.2975 287° West 425 489 45,000  Level Houston Center
08:18PM 30.3228 -92.4150 287° West 419 482 45,000  Level Houston Center
08:19PM 30.3650 -92.5694 288° West 420 483 45,000  Level Houston Center
08:20PM 30.3992 -92.6972 287° West 418 481 45,000  Level Houston Center
08:21PM 30.4336 -92.8264 287° West 421 484 45,000  Level Houston Center
08:22PM 30.4675 -92.9564 287° West 423 487 45,000  Level Houston Center
08:23PM 30.5019 -93.0872 287° West 427 491 45,000  Level Houston Center
08:24PM 30.5450 -93.2425 288° West 426 490 45,000  Level Houston Center
08:25PM 30.5794 -93.3703 287° West 422 486 45,000  Level Houston Center
08:26PM 30.6117 -93.4992 286° West 421 484 45,000  Level Houston Center
08:27PM 30.6439 -93.6256 287° West 418 481 45,000  Level Houston Center
08:28PM 30.6775 -93.7553 287° West 422 486 45,000  Level Houston Center
08:29PM 30.7153 -93.9056 286° West 415 478 45,000 -240 Level Houston Center
08:30PM 30.7461 -94.0278 286° West 404 465 44,600 -540 Descending Houston Center
08:32PM 30.7758 -94.1500 286° West 400 460 44,000 -300 Descending Houston Center
08:33PM 30.8058 -94.2711 286° West 387 445 44,000  Level Houston Center
08:34PM 30.8386 -94.4039 286° West 424 488 44,000  Level Houston Center
08:35PM 30.8700 -94.5358 286° West 424 488 44,000  Level Houston Center
08:36PM 30.9031 -94.6697 286° West 423 487 44,000  Level Houston Center
08:37PM 30.9347 -94.8017 286° West 426 490 44,000  Level Houston Center
08:38PM 30.9725 -94.9608 286° West 421 484 44,000  Level Houston Center
08:39PM 31.0056 -95.0908 287° West 416 479 44,000  Level Houston Center
08:40PM 31.0389 -95.2197 287° West 414 476 44,000  Level Houston Center
08:41PM 31.0692 -95.3469 286° West 407 468 44,000  Level Houston Center
08:42PM 31.0839 -95.4781 278° West 403 464 44,000  Level Houston Center
08:43PM 31.0936 -95.6106 275° West 410 472 44,000  Level Houston Center
08:44PM 31.1053 -95.7433 276° West 412 474 44,000  Level Houston Center
08:45PM 31.1142 -95.8758 275° West 410 472 44,100 300 Climbing Houston Center
08:46PM 31.1264 -96.0339 275° West 409 471 44,700 420 Climbing Houston Center
08:47PM 31.1358 -96.1536 275° West 404 465 45,000 120 Climbing Houston Center
08:48PM 31.1447 -96.2853 275° West 404 465 45,000  Level Houston Center
08:49PM 31.1528 -96.4194 274° West 409 471 45,000  Level Houston Center
08:50PM 31.1650 -96.5775 275° West 415 478 45,000  Level Houston Center
08:51PM 31.1742 -96.7122 275° West 414 476 45,000  Level Houston Center
08:52PM 31.1844 -96.8458 275° West 410 472 45,000  Level Houston Center
08:53PM 31.2006 -96.9789 278° West 414 476 45,000  Level Houston Center
08:54PM 31.2200 -97.1122 280° West 416 479 45,000  Level Houston Center
08:55PM 31.2378 -97.2464 279° West 417 480 45,000  Level Houston Center
08:56PM 31.2561 -97.4050 278° West 422 486 45,000  Level Houston Center
08:57PM 31.2719 -97.5422 278° West 424 488 45,000  Level Houston Center
08:59PM 31.3069 -97.7003 285° West 425 489 45,000  Level Fort Worth Center
09:00PM 31.3378 -97.8342 285° West 425 489 45,000  Level Fort Worth Center
09:01PM 31.3708 -97.9656 286° West 425 489 45,000  Level Fort Worth Center
09:02PM 31.4033 -98.1119 285° West 425 489 45,000  Level Fort Worth Center
09:03PM 31.4358 -98.2461 286° West 425 489 45,000  Level Fort Worth Center
09:04PM 31.4664 -98.3753 286° West 425 489 45,000  Level Fort Worth Center
09:05PM 31.4925 -98.5047 283° West 412 474 45,000  Level Fort Worth Center
09:06PM 31.5225 -98.6344 285° West 412 474 45,000  Level Fort Worth Center
09:07PM 31.5525 -98.7614 286° West 412 474 45,000  Level Fort Worth Center
09:08PM 31.5839 -98.8867 286° West 410 472 45,000  Level Houston Center
09:09PM 31.6150 -99.0167 286° West 412 474 45,000  Level Houston Center
09:10PM 31.6378 -99.1311 283° West 410 472 45,000  Level Fort Worth Center
09:11PM 31.6672 -99.2661 284° West 410 472 45,000  Level Fort Worth Center
09:12PM 31.6967 -99.3983 285° West 415 478 45,000  Level Fort Worth Center
09:13PM 31.7258 -99.5308 285° West 415 478 45,000  Level Fort Worth Center
09:14PM 31.7567 -99.6636 285° West 415 478 45,000  Level Fort Worth Center
09:15PM 31.7856 -99.7986 284° West 415 478 45,000  Level Fort Worth Center
09:16PM 31.8144 -99.9314 284° West 415 478 45,000  Level Fort Worth Center
09:17PM 31.8492 -100.0694 287° West 421 484 45,000  Level Fort Worth Center
09:18PM 31.8814 -100.2147 285° West 428 493 45,000  Level Fort Worth Center
09:19PM 31.9056 -100.3500 282° West 433 498 45,000  Level Fort Worth Center
09:20PM 31.9356 -100.4831 285° West 428 493 45,000  Level Fort Worth Center
09:21PM 31.9617 -100.6186 283° West 422 486 45,000  Level Fort Worth Center
09:22PM 31.9914 -100.7519 285° West 422 486 45,000  Level Fort Worth Center
09:23PM 32.0192 -100.8853 284° West 422 486 45,000  Level Fort Worth Center
09:24PM 32.0472 -101.0014 286° West 422 486 45,000  Level Fort Worth Center
09:25PM 32.0767 -101.1350 285° West 415 478 45,000  Level Fort Worth Center
09:26PM 32.1081 -101.2736 285° West 425 489 45,000  Level Fort Worth Center
09:27PM 32.1333 -101.4022 283° West 425 489 45,000  Level Fort Worth Center
09:28PM 32.1622 -101.5408 284° West 425 489 45,000  Level Fort Worth Center
09:29PM 32.1806 -101.6744 279° West 420 483 45,000  Level Fort Worth Center
09:30PM 32.2094 -101.8058 285° West 420 483 45,000  Level Fort Worth Center
09:31PM 32.2361 -101.9397 283° West 415 478 45,000  Level Fort Worth Center
09:32PM 32.2625 -102.0736 283° West 415 478 45,000  Level Fort Worth Center
09:33PM 32.2886 -102.2078 283° West 415 478 45,000  Level Fort Worth Center
09:34PM 32.3128 -102.3417 282° West 415 478 45,000  Level Fort Worth Center
09:35PM 32.3367 -102.4781 282° West 415 478 45,000  Level Fort Worth Center
09:36PM 32.3667 -102.6125 285° West 420 483 45,000  Level Fort Worth Center
09:37PM 32.3944 -102.7444 284° West 415 478 45,000  Level Fort Worth Center
09:38PM 32.4222 -102.8742 284° West 415 478 45,000  Level Fort Worth Center
09:39PM 32.4658 -103.1100 282° West 413 475 45,000  Level Albuquerque Center
09:40PM 32.4922 -103.2444 283° West 416 479 45,000  Level Albuquerque Center
09:41PM 32.5158 -103.3786 282° West 417 480 45,000  Level Albuquerque Center
09:42PM 32.5411 -103.5142 283° West 420 483 45,000  Level Albuquerque Center
09:43PM 32.5664 -103.6483 283° West 419 482 45,000  Level Albuquerque Center
09:44PM 32.5917 -103.7817 283° West 417 480 45,000  Level Albuquerque Center
09:45PM 32.6153 -103.9169 282° West 418 481 45,000  Level Albuquerque Center
09:46PM 32.6458 -104.0764 283° West 416 479 45,000  Level Albuquerque Center
09:47PM 32.6714 -104.2100 283° West 416 479 45,000  Level Albuquerque Center
09:48PM 32.6947 -104.3447 282° West 418 481 45,000  Level Albuquerque Center
09:50PM 32.7206 -104.4892 282° West 417 480 45,000  Level Albuquerque Center
09:51PM 32.7444 -104.6244 282° West 418 481 45,000  Level Albuquerque Center
09:52PM 32.7686 -104.7594 282° West 418 481 45,000  Level Albuquerque Center
09:53PM 32.7922 -104.8950 282° West 418 481 45,000  Level Albuquerque Center
09:54PM 32.8181 -105.0436 282° West 422 486 45,000  Level Albuquerque Center
09:55PM 32.8422 -105.1797 282° West 421 484 45,000  Level Albuquerque Center
09:56PM 32.8658 -105.3092 282° West 425 489 45,000  Level Albuquerque Center
09:57PM 32.8892 -105.4453 282° West 423 487 45,000  Level Albuquerque Center
09:58PM 32.9128 -105.5819 282° West 423 487 45,000  Level Albuquerque Center
09:59PM 32.9361 -105.7186 282° West 423 487 45,000  Level Albuquerque Center
10:00PM 32.9583 -105.8561 281° West 425 489 45,000  Level Albuquerque Center
10:01PM 32.9856 -106.0206 281° West 427 491 45,000  Level Albuquerque Center
10:02PM 33.0089 -106.1578 281° West 426 490 45,000  Level Albuquerque Center
10:03PM 33.0325 -106.2964 282° West 428 493 45,000  Level Albuquerque Center
10:04PM 33.0547 -106.4353 281° West 429 494 45,000  Level Albuquerque Center
10:05PM 33.0769 -106.5744 281° West 431 496 45,000  Level Albuquerque Center
10:06PM 33.0989 -106.7136 281° West 431 496 45,000  Level Albuquerque Center
10:07PM 33.1211 -106.8542 281° West 433 498 45,000  Level Albuquerque Center
10:08PM 33.1433 -106.9956 281° West 436 502 45,000  Level Albuquerque Center
10:09PM 33.1694 -107.1664 280° West 438 504 45,000  Level Albuquerque Center
10:10PM 33.1917 -107.3086 281° West 440 506 45,000  Level Albuquerque Center
10:11PM 33.2136 -107.4511 280° West 440 506 45,000  Level Albuquerque Center
10:12PM 33.2344 -107.5931 280° West 438 504 45,000  Level Albuquerque Center
10:13PM 33.2550 -107.7353 280° West 438 504 45,000  Level Albuquerque Center
10:14PM 33.2750 -107.8769 280° West 436 502 45,000  Level Albuquerque Center
10:15PM 33.3011 -108.0178 283° West 437 503 45,000  Level Albuquerque Center
10:16PM 33.3367 -108.1525 288° West 434 499 45,000  Level Albuquerque Center
10:17PM 33.3711 -108.3194 284° West 434 499 45,000  Level Albuquerque Center
10:18PM 33.4011 -108.4600 284° West 436 502 45,000  Level Albuquerque Center
10:19PM 33.4311 -108.6019 284° West 441 507 45,000  Level Albuquerque Center
10:20PM 33.4619 -108.7436 285° West 443 510 45,000  Level Albuquerque Center
10:21PM 33.4917 -108.8858 284° West 444 511 45,000  Level Albuquerque Center
10:22PM 33.5194 -109.0281 283° West 444 511 45,000  Level Albuquerque Center
10:23PM 33.5492 -109.1697 284° West 444 511 45,000  Level Albuquerque Center
10:24PM 33.5831 -109.3392 284° West 441 507 45,000  Level Albuquerque Center
10:25PM 33.6125 -109.4817 284° West 443 510 45,000  Level Albuquerque Center
10:26PM 33.6411 -109.6225 284° West 440 506 45,000  Level Albuquerque Center
10:27PM 33.6686 -109.7642 283° West 439 505 45,000  Level Albuquerque Center
10:28PM 33.6969 -109.9064 284° West 440 506 45,000  Level Albuquerque Center
10:29PM 33.7239 -110.0472 283° West 437 503 45,000  Level Albuquerque Center
10:30PM 33.7525 -110.1908 284° West 441 507 45,000  Level Albuquerque Center
10:31PM 33.7800 -110.3331 283° West 440 506 45,000  Level Albuquerque Center
10:32PM 33.8119 -110.4975 283° West 440 506 45,000  Level Albuquerque Center
10:33PM 33.8389 -110.6397 283° West 438 504 45,000  Level Albuquerque Center
10:34PM 33.8653 -110.7808 283° West 436 502 45,000  Level Albuquerque Center
10:35PM 33.8917 -110.9242 283° West 438 504 45,000  Level Albuquerque Center
10:36PM 33.9189 -111.0669 283° West 438 504 45,000  Level Albuquerque Center
10:37PM 33.9458 -111.2106 283° West 441 507 45,000  Level Albuquerque Center
10:39PM 33.9722 -111.3564 282° West 444 511 45,000  Level Albuquerque Center
10:40PM 34.0039 -111.5300 282° West 445 512 45,000  Level Albuquerque Center
10:41PM 34.0319 -111.6825 283° West 448 516 45,000  Level Albuquerque Center
10:42PM 34.0583 -111.8308 282° West 454 522 45,000  Level Albuquerque Center
10:43PM 34.0847 -111.9772 282° West 451 519 45,000  Level Albuquerque Center
10:44PM 34.1081 -112.1117 282° West 459 528 45,000  Level Albuquerque Center
10:45PM 34.1342 -112.2594 282° West 454 522 45,000  Level Albuquerque Center
10:46PM 34.1653 -112.4372 282° West 452 520 45,000  Level Albuquerque Center
10:47PM 34.1906 -112.5856 282° West 452 520 45,000  Level Albuquerque Center
10:48PM 34.2169 -112.7328 282° West 451 519 45,000  Level Albuquerque Center
10:49PM 34.2425 -112.8811 282° West 451 519 45,000  Level Albuquerque Center
10:50PM 34.2681 -113.0303 282° West 453 521 45,000  Level Albuquerque Center
10:51PM 34.2919 -113.1789 281° West 453 521 45,000  Level Albuquerque Center
10:52PM 34.3181 -113.3244 282° West 447 514 45,000  Level Albuquerque Center
10:53PM 34.3425 -113.4728 281° West 450 518 45,000  Level Albuquerque Center
10:54PM 34.3683 -113.6450 280° West 456 525 45,000  Level Albuquerque Center
10:55PM 34.3897 -113.7947 280° West 452 520 45,000  Level Albuquerque Center
10:56PM 34.4172 -113.9400 283° West 446 513 45,000 -300 Level Albuquerque Center
10:57PM 34.4403 -114.0894 281° West 448 516 44,500 -840 Descending Albuquerque Center
10:58PM 34.4650 -114.2247 283° West 439 505 43,500 -1,140 Descending Los Angeles Center
10:59PM 34.4864 -114.3681 280° West 435 501 42,400 -1,200 Descending Los Angeles Center
11:00PM 34.5108 -114.5147 281° West 444 511 41,100 -1,320 Descending Los Angeles Center
11:01PM 34.5331 -114.6619 280° West 447 514 39,800 -1,320 Descending Los Angeles Center
11:02PM 34.5567 -114.8103 281° West 449 517 38,500 -1,320 Descending Los Angeles Center
11:03PM 34.5789 -114.9586 280° West 450 518 37,200 -1,440 Descending Los Angeles Center
11:04PM 34.6058 -115.1397 280° West 454 522 35,600 -1,500 Descending Los Angeles Center
11:05PM 34.6286 -115.2917 280° West 459 528 34,100 -1,440 Descending Los Angeles Center
11:06PM 34.6522 -115.4456 281° West 465 535 32,700 -1,500 Descending Los Angeles Center
11:07PM 34.6764 -115.6078 280° West 477 549 31,100 -1,380 Descending Los Angeles Center
11:08PM 34.6992 -115.7678 280° West 481 554 29,600 -1,500 Descending Los Angeles Center
11:09PM 34.7256 -115.9578 280° West 476 548 27,800 -1,560 Descending Los Angeles Center
11:10PM 34.7478 -116.1125 280° West 469 540 26,400 -1,260 Descending Los Angeles Center
11:11PM 34.7692 -116.2622 280° West 458 527 25,200 -1,140 Descending Los Angeles Center
11:12PM 34.7906 -116.4072 280° West 440 506 24,100 -1,080 Descending Los Angeles Center
11:13PM 34.7850 -116.5814 268° West 433 498 23,000 -1,020 Descending Los Angeles Center
11:14PM 34.7708 -116.7250 263° West 427 491 22,100 -960 Descending Los Angeles Center
11:15PM 34.7575 -116.8681 264° West 425 489 21,100 -1,020 Descending Los Angeles Center
11:16PM 34.7428 -117.0108 263° West 425 489 20,100 -540 Descending Los Angeles Center
11:17PM 34.7281 -117.1497 263° West 416 479 20,000 -60 Descending Los Angeles Center
11:19PM 34.7131 -117.2908 263° West 419 482 20,000  Level Los Angeles Center
11:20PM 34.6981 -117.4347 263° West 424 488 20,000 -720 Level Los Angeles Center
11:21PM 34.6833 -117.5744 263° West 417 480 18,600 -1,740 Descending Los Angeles Center
11:22PM 34.6683 -117.7086 262° West 402 463 16,500 -2,160 Descending Los Angeles Center
11:23PM 34.6483 -117.8656 261° West 391 450 14,200 -1,980 Descending Los Angeles Center
11:24PM 34.6269 -117.9892 258° West 375 432 12,500 -1,680 Descending Los Angeles Center
11:25PM 34.6086 -118.1050 259° West 350 403 10,800 -1,620 Descending Los Angeles Center
11:26PM 34.5908 -118.2128 259° West 299 344 9,200 -1,380 Descending Los Angeles Center
11:27PM 34.5750 -118.3011 258° West 273 314 8,000 -540 Descending Los Angeles Center
11:28PM 34.5586 -118.3931 258° West 276 318 8,000 -480 Level Los Angeles Center
11:29PM 34.5117 -118.4781 236° Southwest 271 312 7,000 -960 Descending Los Angeles Center
11:30PM 34.4486 -118.5278 213° Southwest 272 313 6,100 -540 Descending Los Angeles Center
11:31PM 34.3833 -118.5725 209° Southwest 270 311 6,000 -480 Descending Los Angeles Center
11:32PM 34.3114 -118.5933 193° South 275 316 5,200 -660 Descending Los Angeles Center
11:33PM 34.2342 -118.5783 171° South 246 283 4,700 -1,080 Descending Los Angeles Center
11:34PM 34.2069 -118.5289 124° Southeast 214 246 3,000 -1,080 Descending Los Angeles Center
11:35PM 34.1994 -118.4747 99° East 180 207 2,500 -720 Descending Los Angeles Center
11:36PM 34.1997 -118.4208 90° East 168 193 1,600 -720 Descending Los Angeles Center
11:37PM 34.1983 -118.3739 92° East 156 180 1,100 -540 Descending Los Angeles Center
11:39PM 34.2000 -118.3500 90° East  Level FlightAware Approximate